Latest Coastal Weather Observations for Coles Point

IDS60701

Issued at 2:51 am CST Tuesday 27 September 2016 (issued every 10 minutes, with the page automatically refreshed every 10 minutes)

About coastal observations | Map of coastal stations | Coastal observations for SA | Marine services | Other Formats
Station Details ID: 018191 Name: COLES POINT Lat: -34.37 Lon: 135.37 Height: 28.0 m
Data from the previous 72 hours. | See also: Recent months at Coles Point
Date/Time
CST
Temp
°C
Wind Pressure Rain since
9am
mm
Weather Cloud Vis
km
Sea
Height
m
Swell
Dir  Spd
kts
Gust
kts
hPa Trend Height
m
Period
s
Dir
27/02:30am 11.5 W 9 13 1014.9 - 0.0 - - - - - - -
27/02:00am 11.2 WNW 8 11 1015.1 - 0.0 - - - - - - -
27/01:30am 11.4 W 8 15 1015.3 - 0.0 - - - - - - -
27/01:00am 10.7 WNW 7 9 1015.6 - 0.0 - - - - - - -
27/12:30am 11.7 W 7 10 1015.7 - 0.0 - - - - - - -
27/12:00am 10.7 WNW 6 8 1016.0 - 0.0 - - - - - - -
 
Date/Time
CST
Temp
°C
Wind Pressure Rain since
9am
mm
Weather Cloud Vis
km
Sea
Height
m
Swell
Dir  Spd
kts
Gust
kts
hPa Trend Height
m
Period
s
Dir
26/11:30pm 11.7 W 7 11 1016.2 - 0.0 - - - - - - -
26/11:00pm 10.9 WSW 5 9 1016.2 - 0.0 - - - - - - -
26/10:30pm 11.4 W 9 13 1016.5 - 0.0 - - - - - - -
26/10:00pm 10.9 W 7 10 1016.5 - 0.0 - - - - - - -
26/09:30pm 11.2 WSW 9 12 1016.5 - 0.0 - - - - - - -
26/09:00pm 11.2 WSW 9 14 1016.4 - 0.0 - - - - - - -
26/08:30pm 10.9 WSW 8 10 1016.2 - 0.0 - - - - - - -
26/08:00pm 11.4 WSW 9 11 1016.0 - 0.0 - - - - - - -
26/07:30pm 11.5 WSW 9 13 1015.7 - 0.0 - - - - - - -
26/07:00pm 11.7 WSW 11 17 1015.4 - 0.0 - - - - - - -
26/06:30pm 11.7 WSW 9 13 1015.2 - 0.0 - - - - - - -
26/06:00pm 12.0 WSW 10 14 1015.2 - 0.0 - - - - - - -
26/05:30pm 12.9 WSW 10 16 1014.9 - 0.0 - - - - - - -
26/05:00pm 14.0 WSW 10 14 1014.4 - 0.0 - - - - - - -
26/04:30pm 14.0 WSW 12 15 1014.3 - 0.0 - - - - - - -
26/04:00pm 14.4 W 13 17 1014.0 - 0.0 - - - - - - -
26/03:30pm 15.0 WSW 13 17 1013.8 - 0.0 - - - - - - -
26/03:00pm 15.1 WSW 12 17 1013.8 - 0.0 - - - - - - -
26/02:30pm 14.8 WSW 14 18 1013.8 - 0.0 - - - - - - -
26/02:00pm 15.0 W 13 17 1013.9 - 0.0 - - - - - - -
26/01:30pm 15.1 W 14 20 1013.9 - 0.0 - - - - - - -
26/01:00pm 15.1 W 15 20 1014.1 - 0.0 - - - - - - -
26/12:30pm 14.9 W 15 19 1014.0 - 0.0 - - - - - - -
26/12:00pm 14.9 WSW 16 20 1014.1 - 0.0 - - - - - - -
26/11:30am 14.9 WSW 14 18 1014.1 - 0.0 - - - - - - -
26/11:00am 14.4 WSW 16 22 1014.2 - 0.0 - - - - - - -
26/10:30am 14.7 WSW 15 20 1014.1 - 0.0 - - - - - - -
26/10:00am 14.3 WSW 15 21 1014.0 - 0.0 - - - - - - -
26/09:30am 13.9 WSW 15 20 1013.9 - 0.0 - - - - - - -
26/09:00am 13.5 WSW 15 20 1013.8 - 0.2 - - - - - - -
26/08:30am 13.2 WSW 13 17 1013.5 - 0.2 - - - - - - -
26/08:00am 12.6 WSW 13 20 1013.2 - 0.2 - - - - - - -
26/07:30am 12.4 WSW 14 19 1012.9 - 0.2 - - - - - - -
26/07:00am 12.3 WSW 14 18 1012.6 - 0.2 - - - - - - -
26/06:30am 11.5 NW 7 11 1012.2 - 0.2 - - - - - - -
26/06:00am 8.0 NNW 1 3 1011.9 - 0.2 - - - - - - -
26/05:30am 7.7 ESE 5 8 1011.6 - 0.2 - - - - - - -
26/05:00am 7.2 E 8 9 1011.4 - 0.2 - - - - - - -
26/04:30am 7.1 E 8 9 1011.2 - 0.2 - - - - - - -
26/04:00am 6.8 E 9 11 1011.3 - 0.2 - - - - - - -
26/03:30am 6.8 NE 12 15 1010.7 - 0.2 - - - - - - -
26/03:00am 7.1 NE 11 13 1011.2 - 0.2 - - - - - - -
26/02:30am 7.5 NE 11 14 1011.7 - 0.2 - - - - - - -
26/02:00am 7.1 NE 11 12 1011.9 - 0.2 - - - - - - -
26/01:30am 6.7 NNE 10 12 1011.8 - 0.2 - - - - - - -
26/01:00am 6.6 NNE 10 13 1012.0 - 0.2 - - - - - - -
26/12:30am 7.3 NE 12 14 1012.1 - 0.2 - - - - - - -
26/12:00am 8.0 NE 11 13 1012.8 - 0.2 - - - - - - -
 
Date/Time
CST
Temp
°C
Wind Pressure Rain since
9am
mm
Weather Cloud Vis
km
Sea
Height
m
Swell
Dir  Spd
kts
Gust
kts
hPa Trend Height
m
Period
s
Dir
25/11:30pm 7.8 NNE 10 11 1013.5 - 0.2 - - - - - - -
25/11:00pm 8.7 NE 8 9 1014.0 - 0.2 - - - - - - -
25/10:30pm 8.0 N 3 3 1014.5 - 0.0 - - - - - - -
25/10:00pm 10.1 N 4 6 1015.0 - 0.0 - - - - - - -
25/09:30pm 9.6 WNW 4 6 1015.2 - 0.0 - - - - - - -
25/09:00pm 9.4 WNW 4 6 1015.2 - 0.0 - - - - - - -
25/08:30pm 10.4 W 5 7 1014.9 - 0.0 - - - - - - -
25/08:00pm 10.8 WNW 5 8 1014.8 - 0.0 - - - - - - -
25/07:30pm 11.4 WNW 7 10 1014.5 - 0.0 - - - - - - -
25/07:00pm 11.6 WNW 7 11 1014.3 - 0.0 - - - - - - -
25/06:30pm 11.9 WNW 9 12 1014.1 - 0.0 - - - - - - -
25/06:00pm 12.2 WNW 9 12 1014.1 - 0.0 - - - - - - -
25/05:30pm 13.6 WNW 9 13 1014.0 - 0.0 - - - - - - -
25/05:00pm 14.2 WNW 11 14 1013.9 - 0.0 - - - - - - -
25/04:30pm 14.6 WNW 11 15 1013.9 - 0.0 - - - - - - -
25/04:00pm 15.0 WNW 12 16 1013.8 - 0.0 - - - - - - -
25/03:30pm 15.1 WNW 12 17 1013.9 - 0.0 - - - - - - -
25/03:00pm 13.9 NW 9 13 1013.8 - 0.0 - - - - - - -
25/02:30pm 14.7 NW 11 15 1014.0 - 0.0 - - - - - - -
25/02:00pm 15.9 NW 12 16 1014.3 - 0.0 - - - - - - -
25/01:30pm 15.6 NW 11 16 1014.5 - 0.0 - - - - - - -
25/01:00pm 15.1 WNW 10 14 1014.9 - 0.0 - - - - - - -
25/12:30pm 15.0 NW 9 12 1015.4 - 0.0 - - - - - - -
25/12:00pm 15.0 NNW 9 12 1015.5 - 0.0 - - - - - - -
25/11:30am 15.1 NW 9 13 1015.5 - 0.0 - - - - - - -
25/11:00am 14.7 NW 7 11 1015.7 - 0.0 - - - - - - -
25/10:30am 14.5 WNW 6 9 1016.0 - 0.0 - - - - - - -
25/10:00am 14.3 NW 4 7 1016.1 - 0.0 - - - - - - -
25/09:30am 13.7 WNW 4 7 1016.2 - 0.0 - - - - - - -
25/09:00am 12.7 WSW 4 6 1016.2 - 5.4 - - - - - - -
25/08:30am 12.3 W 4 6 1016.3 - 5.4 - - - - - - -
25/08:00am 11.3 WSW 5 8 1016.1 - 5.4 - - - - - - -
25/07:30am 11.1 WSW 9 12 1015.9 - 5.4 - - - - - - -
25/07:00am 10.7 WSW 4 7 1015.6 - 5.4 - - - - - - -
25/06:30am 9.3 W 4 5 1015.6 - 5.4 - - - - - - -
25/06:00am 10.0 W 11 15 1015.6 - 5.4 - - - - - - -
25/05:30am 11.4 W 10 18 1015.3 - 5.4 - - - - - - -
25/05:00am 10.2 WSW 7 9 1014.9 - 5.4 - - - - - - -
25/04:30am 10.7 W 7 11 1014.5 - 5.4 - - - - - - -
25/04:00am 10.1 W 7 10 1014.3 - 5.4 - - - - - - -
25/03:30am 10.2 WSW 8 11 1014.1 - 5.4 - - - - - - -
25/03:00am 9.1 WSW 4 5 1014.1 - 5.4 - - - - - - -
25/02:30am 9.2 S 3 12 1014.2 - 5.4 - - - - - - -
25/02:00am 10.0 SW 10 15 1014.4 - 5.4 - - - - - - -
25/01:30am 9.7 WSW 3 5 1014.5 - 5.4 - - - - - - -
25/01:00am 11.3 WSW 9 14 1014.7 - 5.4 - - - - - - -
25/12:30am 9.7 WSW 6 8 1014.6 - 5.4 - - - - - - -
25/12:00am 10.2 WSW 7 9 1014.5 - 5.4 - - - - - - -
 
Date/Time
CST
Temp
°C
Wind Pressure Rain since
9am
mm
Weather Cloud Vis
km
Sea
Height
m
Swell
Dir  Spd
kts
Gust
kts
hPa Trend Height
m
Period
s
Dir
24/11:30pm 10.6 WSW 9 14 1014.6 - 5.4 - - - - - - -
24/11:00pm 11.2 WSW 12 17 1014.8 - 5.4 - - - - - - -
24/10:30pm 10.9 WSW 11 14 1014.6 - 5.4 - - - - - - -
24/10:00pm 10.9 WSW 11 15 1014.6 - 5.4 - - - - - - -
24/09:30pm 11.1 WSW 11 17 1014.6 - 5.4 - - - - - - -
24/09:00pm 11.0 WSW 9 13 1014.7 - 5.4 - - - - - - -
24/08:30pm 10.9 SW 10 14 1014.4 - 5.4 - - - - - - -
24/08:00pm 11.2 SW 11 15 1014.1 - 5.4 - - - - - - -
24/07:30pm 11.3 SW 12 15 1013.5 - 5.4 - - - - - - -
24/07:00pm 11.2 SW 10 15 1012.9 - 5.4 - - - - - - -
24/06:30pm 11.6 SW 13 17 1012.7 - 5.4 - - - - - - -
24/06:00pm 11.6 SW 13 19 1012.3 - 5.4 - - - - - - -
24/05:30pm 12.5 WSW 14 19 1012.1 - 5.4 - - - - - - -
24/05:00pm 13.1 SW 16 21 1011.5 - 5.4 - - - - - - -
24/04:30pm 13.1 SW 14 18 1010.9 - 5.4 - - - - - - -
24/04:00pm 13.4 SW 14 20 1010.5 - 5.4 - - - - - - -
24/03:30pm 13.9 SW 15 20 1009.9 - 5.4 - - - - - - -
24/03:00pm 13.4 SSW 16 21 1009.4 - 5.4 - - - - - - -
24/02:30pm 14.1 SSW 16 23 1009.0 - 5.4 - - - - - - -
24/02:00pm 14.1 SSW 14 20 1008.9 - 5.4 - - - - - - -
24/01:30pm 12.2 SSW 8 13 1008.7 - 5.2 - - - - - - -
24/01:00pm 11.9 SSW 10 13 1008.8 - 4.8 - - - - - - -
24/12:30pm 12.6 SW 10 13 1008.6 - 3.6 - - - - - - -
24/12:00pm 11.8 SW 13 17 1008.6 - 3.6 Rain - - - - - -
24/11:30am 12.1 SW 7 10 1008.5 - 3.2 - - - - - - -
24/11:00am 14.3 WSW 9 19 1008.3 - 0.0 - - - - - - -
24/10:30am 15.5 WSW 7 9 1007.9 - 0.0 - - - - - - -
24/10:00am 15.1 WSW 5 7 1008.0 - 0.0 - - - - - - -
24/09:30am 15.0 SW 7 9 1007.9 - 0.0 - - - - - - -
24/09:00am 14.7 SW 8 11 1007.7 - 0.2 - - - - - - -
24/08:30am 14.2 SW 10 12 1007.4 - 0.2 - - - - - - -
24/08:00am 13.7 SW 10 14 1007.2 - 0.2 - - - - - - -
24/07:30am 13.8 WSW 9 13 1006.8 - 0.2 - - - - - - -
24/07:00am 12.7 WSW 10 13 1006.3 - 0.2 - - - - - - -
24/06:30am 12.6 WSW 11 14 1006.0 - 0.2 - - - - - - -
24/06:00am 12.8 WSW 11 15 1005.5 - 0.2 - - - - - - -
24/05:30am 13.3 WSW 12 16 1005.5 - 0.2 - - - - - - -
24/05:00am 13.5 WSW 13 17 1005.2 - 0.2 - - - - - - -
24/04:30am 13.8 WSW 12 17 1004.8 - 0.2 - - - - - - -
24/04:00am 14.0 WSW 10 15 1004.6 - 0.2 - - - - - - -
24/03:30am 14.0 WSW 12 17 1004.3 - 0.2 - - - - - - -
24/03:00am 14.1 WSW 11 16 1004.0 - 0.2 - - - - - - -

Other Formats:

Comma delimited format used in spreadsheet applications
http://www.bom.gov.au/fwo/IDS60701/IDS60701.94658.axf

JavaScript Object Notation format (JSON) in row-major order
http://www.bom.gov.au/fwo/IDS60701/IDS60701.94658.json